sensor_id;sensor_type;location;lat;lon;timestamp;P1;durP1;ratioP1;P2;durP2;ratioP2
10896;SDS011;5501;51.176;6.470;2023-03-01T00:02:02;7.25;;;3.65;;
10896;SDS011;5501;51.176;6.470;2023-03-01T00:07:05;11.77;;;4.57;;
10896;SDS011;5501;51.176;6.470;2023-03-01T00:12:07;7.25;;;3.88;;
10896;SDS011;5501;51.176;6.470;2023-03-01T00:17:08;6.72;;;4.43;;
10896;SDS011;5501;51.176;6.470;2023-03-01T00:22:10;6.57;;;4.00;;
10896;SDS011;5501;51.176;6.470;2023-03-01T00:27:11;6.55;;;3.60;;
10896;SDS011;5501;51.176;6.470;2023-03-01T00:32:13;8.40;;;4.03;;
10896;SDS011;5501;51.176;6.470;2023-03-01T00:37:14;9.52;;;4.38;;
10896;SDS011;5501;51.176;6.470;2023-03-01T00:42:16;6.90;;;4.32;;
10896;SDS011;5501;51.176;6.470;2023-03-01T00:47:17;11.48;;;4.63;;
10896;SDS011;5501;51.176;6.470;2023-03-01T00:52:19;6.65;;;3.65;;
10896;SDS011;5501;51.176;6.470;2023-03-01T00:57:20;6.45;;;4.07;;
10896;SDS011;5501;51.176;6.470;2023-03-01T01:02:22;8.63;;;4.57;;
10896;SDS011;5501;51.176;6.470;2023-03-01T01:07:23;5.80;;;4.03;;
10896;SDS011;5501;51.176;6.470;2023-03-01T01:12:25;14.10;;;4.15;;
10896;SDS011;5501;51.176;6.470;2023-03-01T01:17:27;5.97;;;3.80;;
10896;SDS011;5501;51.176;6.470;2023-03-01T01:22:29;9.18;;;4.38;;
10896;SDS011;5501;51.176;6.470;2023-03-01T01:27:30;5.07;;;3.40;;
10896;SDS011;5501;51.176;6.470;2023-03-01T01:32:32;5.50;;;4.38;;
10896;SDS011;5501;51.176;6.470;2023-03-01T01:37:33;5.88;;;4.22;;
10896;SDS011;5501;51.176;6.470;2023-03-01T01:42:35;7.20;;;3.95;;
10896;SDS011;5501;51.176;6.470;2023-03-01T01:47:36;6.63;;;4.30;;
10896;SDS011;5501;51.176;6.470;2023-03-01T01:52:38;7.05;;;4.18;;
10896;SDS011;5501;51.176;6.470;2023-03-01T01:57:46;6.65;;;4.57;;
10896;SDS011;5501;51.176;6.470;2023-03-01T02:02:51;12.73;;;4.80;;
10896;SDS011;5501;51.176;6.470;2023-03-01T02:08:00;7.28;;;5.00;;
10896;SDS011;5501;51.176;6.470;2023-03-01T02:13:02;10.05;;;3.47;;
10896;SDS011;5501;51.176;6.470;2023-03-01T02:18:04;9.00;;;4.07;;
10896;SDS011;5501;51.176;6.470;2023-03-01T02:23:08;6.50;;;4.13;;
10896;SDS011;5501;51.176;6.470;2023-03-01T02:28:17;9.25;;;4.22;;
10896;SDS011;5501;51.176;6.470;2023-03-01T02:33:34;7.55;;;4.50;;
10896;SDS011;5501;51.176;6.470;2023-03-01T02:38:39;8.25;;;4.35;;
10896;SDS011;5501;51.176;6.470;2023-03-01T02:43:42;6.93;;;4.22;;
10896;SDS011;5501;51.176;6.470;2023-03-01T02:48:47;5.72;;;4.43;;
10896;SDS011;5501;51.176;6.470;2023-03-01T02:54:01;7.10;;;5.10;;
10896;SDS011;5501;51.176;6.470;2023-03-01T02:59:07;7.57;;;4.47;;
10896;SDS011;5501;51.176;6.470;2023-03-01T03:04:10;7.43;;;4.75;;
10896;SDS011;5501;51.176;6.470;2023-03-01T03:09:20;5.53;;;4.38;;
10896;SDS011;5501;51.176;6.470;2023-03-01T03:14:21;6.72;;;4.03;;
10896;SDS011;5501;51.176;6.470;2023-03-01T03:19:23;8.35;;;4.20;;
10896;SDS011;5501;51.176;6.470;2023-03-01T03:24:24;5.90;;;3.75;;
10896;SDS011;5501;51.176;6.470;2023-03-01T03:29:26;6.47;;;4.20;;
10896;SDS011;5501;51.176;6.470;2023-03-01T03:34:27;7.03;;;5.00;;
10896;SDS011;5501;51.176;6.470;2023-03-01T03:39:29;14.77;;;4.90;;
10896;SDS011;5501;51.176;6.470;2023-03-01T03:44:35;4.45;;;3.60;;
10896;SDS011;5501;51.176;6.470;2023-03-01T03:49:38;8.73;;;4.35;;
10896;SDS011;5501;51.176;6.470;2023-03-01T03:54:40;10.35;;;4.97;;
10896;SDS011;5501;51.176;6.470;2023-03-01T03:59:41;6.07;;;4.45;;
10896;SDS011;5501;51.176;6.470;2023-03-01T04:04:43;6.15;;;4.10;;
10896;SDS011;5501;51.176;6.470;2023-03-01T04:09:44;6.72;;;4.95;;
10896;SDS011;5501;51.176;6.470;2023-03-01T04:14:46;6.60;;;4.45;;
10896;SDS011;5501;51.176;6.470;2023-03-01T04:19:49;7.43;;;4.85;;
10896;SDS011;5501;51.176;6.470;2023-03-01T04:24:50;5.35;;;4.60;;
10896;SDS011;5501;51.176;6.470;2023-03-01T04:29:52;6.53;;;4.68;;
10896;SDS011;5501;51.176;6.470;2023-03-01T04:34:53;26.45;;;4.82;;
10896;SDS011;5501;51.176;6.470;2023-03-01T04:39:55;6.03;;;4.22;;
10896;SDS011;5501;51.176;6.470;2023-03-01T04:44:56;7.53;;;4.68;;
10896;SDS011;5501;51.176;6.470;2023-03-01T04:49:58;8.52;;;5.10;;
10896;SDS011;5501;51.176;6.470;2023-03-01T04:54:59;6.68;;;4.25;;
10896;SDS011;5501;51.176;6.470;2023-03-01T05:00:01;6.38;;;4.30;;
10896;SDS011;5501;51.176;6.470;2023-03-01T05:05:02;8.82;;;4.75;;
10896;SDS011;5501;51.176;6.470;2023-03-01T05:10:04;10.32;;;4.95;;
10896;SDS011;5501;51.176;6.470;2023-03-01T05:15:06;13.45;;;4.72;;
10896;SDS011;5501;51.176;6.470;2023-03-01T05:20:08;8.88;;;4.47;;
10896;SDS011;5501;51.176;6.470;2023-03-01T05:25:11;7.53;;;5.20;;
10896;SDS011;5501;51.176;6.470;2023-03-01T05:30:15;5.97;;;4.65;;
10896;SDS011;5501;51.176;6.470;2023-03-01T05:35:18;9.63;;;5.57;;
10896;SDS011;5501;51.176;6.470;2023-03-01T05:40:21;7.80;;;4.60;;
10896;SDS011;5501;51.176;6.470;2023-03-01T05:45:25;8.00;;;5.03;;
10896;SDS011;5501;51.176;6.470;2023-03-01T05:50:29;5.40;;;4.82;;
10896;SDS011;5501;51.176;6.470;2023-03-01T05:55:33;6.50;;;4.10;;
10896;SDS011;5501;51.176;6.470;2023-03-01T06:00:36;7.15;;;4.88;;
10896;SDS011;5501;51.176;6.470;2023-03-01T06:05:38;5.97;;;4.72;;
10896;SDS011;5501;51.176;6.470;2023-03-01T06:10:40;6.90;;;3.92;;
10896;SDS011;5501;51.176;6.470;2023-03-01T06:15:42;7.35;;;4.97;;
10896;SDS011;5501;51.176;6.470;2023-03-01T06:20:43;8.68;;;5.00;;
10896;SDS011;5501;51.176;6.470;2023-03-01T06:25:45;10.13;;;6.80;;
10896;SDS011;5501;51.176;6.470;2023-03-01T06:30:46;8.93;;;5.95;;
10896;SDS011;5501;51.176;6.470;2023-03-01T06:35:48;10.20;;;5.95;;
10896;SDS011;5501;51.176;6.470;2023-03-01T06:40:53;6.45;;;4.78;;
10896;SDS011;5501;51.176;6.470;2023-03-01T06:45:56;6.72;;;4.93;;
10896;SDS011;5501;51.176;6.470;2023-03-01T06:50:58;11.68;;;6.05;;
10896;SDS011;5501;51.176;6.470;2023-03-01T06:56:01;7.05;;;4.78;;
10896;SDS011;5501;51.176;6.470;2023-03-01T07:01:06;9.10;;;6.03;;
10896;SDS011;5501;51.176;6.470;2023-03-01T07:06:08;6.40;;;4.70;;
10896;SDS011;5501;51.176;6.470;2023-03-01T07:11:10;8.68;;;5.15;;
10896;SDS011;5501;51.176;6.470;2023-03-01T07:21:49;9.38;;;5.07;;
10896;SDS011;5501;51.176;6.470;2023-03-01T07:26:50;13.77;;;5.65;;
10896;SDS011;5501;51.176;6.470;2023-03-01T07:31:52;9.65;;;5.57;;
10896;SDS011;5501;51.176;6.470;2023-03-01T07:36:54;7.05;;;5.07;;
10896;SDS011;5501;51.176;6.470;2023-03-01T07:41:56;14.25;;;5.93;;
10896;SDS011;5501;51.176;6.470;2023-03-01T07:46:57;10.65;;;5.90;;
10896;SDS011;5501;51.176;6.470;2023-03-01T07:51:59;15.35;;;4.75;;
10896;SDS011;5501;51.176;6.470;2023-03-01T07:57:00;7.43;;;5.45;;
10896;SDS011;5501;51.176;6.470;2023-03-01T08:02:02;8.68;;;5.18;;
10896;SDS011;5501;51.176;6.470;2023-03-01T08:07:04;7.15;;;4.72;;
10896;SDS011;5501;51.176;6.470;2023-03-01T08:12:06;10.27;;;5.70;;
10896;SDS011;5501;51.176;6.470;2023-03-01T08:17:08;8.35;;;5.63;;
10896;SDS011;5501;51.176;6.470;2023-03-01T08:22:10;8.93;;;6.22;;
10896;SDS011;5501;51.176;6.470;2023-03-01T08:27:11;8.82;;;5.70;;
10896;SDS011;5501;51.176;6.470;2023-03-01T08:32:14;8.23;;;5.45;;
10896;SDS011;5501;51.176;6.470;2023-03-01T08:37:16;11.10;;;6.55;;
10896;SDS011;5501;51.176;6.470;2023-03-01T08:42:17;8.68;;;5.25;;
10896;SDS011;5501;51.176;6.470;2023-03-01T08:47:18;11.57;;;6.32;;
10896;SDS011;5501;51.176;6.470;2023-03-01T08:52:20;12.38;;;5.53;;
10896;SDS011;5501;51.176;6.470;2023-03-01T08:57:22;8.95;;;5.93;;
10896;SDS011;5501;51.176;6.470;2023-03-01T09:02:23;9.55;;;5.97;;
10896;SDS011;5501;51.176;6.470;2023-03-01T09:14:18;13.88;;;6.45;;
10896;SDS011;5501;51.176;6.470;2023-03-01T09:19:20;14.63;;;6.95;;
10896;SDS011;5501;51.176;6.470;2023-03-01T09:24:23;10.43;;;6.35;;
10896;SDS011;5501;51.176;6.470;2023-03-01T09:29:26;24.55;;;6.95;;
10896;SDS011;5501;51.176;6.470;2023-03-01T09:34:28;12.73;;;5.97;;
10896;SDS011;5501;51.176;6.470;2023-03-01T09:39:29;12.65;;;6.35;;
10896;SDS011;5501;51.176;6.470;2023-03-01T09:50:05;10.77;;;6.70;;
10896;SDS011;5501;51.176;6.470;2023-03-01T09:55:20;8.60;;;6.22;;
10896;SDS011;5501;51.176;6.470;2023-03-01T10:00:47;13.60;;;6.90;;
10896;SDS011;5501;51.176;6.470;2023-03-01T10:06:02;12.02;;;6.57;;
10896;SDS011;5501;51.176;6.470;2023-03-01T10:11:36;12.50;;;5.97;;
10896;SDS011;5501;51.176;6.470;2023-03-01T10:16:41;10.90;;;6.55;;
10896;SDS011;5501;51.176;6.470;2023-03-01T10:21:50;9.98;;;6.18;;
10896;SDS011;5501;51.176;6.470;2023-03-01T10:32:04;9.18;;;5.85;;
10896;SDS011;5501;51.176;6.470;2023-03-01T10:48:04;9.57;;;6.05;;
10896;SDS011;5501;51.176;6.470;2023-03-01T10:58:30;9.50;;;6.00;;
10896;SDS011;5501;51.176;6.470;2023-03-01T11:03:33;8.95;;;5.32;;
10896;SDS011;5501;51.176;6.470;2023-03-01T11:08:43;7.43;;;4.70;;
10896;SDS011;5501;51.176;6.470;2023-03-01T11:13:51;8.15;;;5.22;;
10896;SDS011;5501;51.176;6.470;2023-03-01T11:18:56;8.93;;;5.30;;
10896;SDS011;5501;51.176;6.470;2023-03-01T11:24:05;8.60;;;5.05;;
10896;SDS011;5501;51.176;6.470;2023-03-01T11:29:27;7.85;;;4.70;;
10896;SDS011;5501;51.176;6.470;2023-03-01T11:45:38;7.95;;;4.60;;
10896;SDS011;5501;51.176;6.470;2023-03-01T11:50:47;8.38;;;5.80;;
10896;SDS011;5501;51.176;6.470;2023-03-01T11:56:01;6.43;;;4.22;;
10896;SDS011;5501;51.176;6.470;2023-03-01T12:06:47;13.48;;;5.00;;
10896;SDS011;5501;51.176;6.470;2023-03-01T12:22:59;8.13;;;4.95;;
10896;SDS011;5501;51.176;6.470;2023-03-01T12:49:46;4.95;;;3.75;;
10896;SDS011;5501;51.176;6.470;2023-03-01T12:54:53;7.90;;;4.57;;
10896;SDS011;5501;51.176;6.470;2023-03-01T13:11:03;6.30;;;3.55;;
10896;SDS011;5501;51.176;6.470;2023-03-01T13:16:38;8.57;;;4.90;;
10896;SDS011;5501;51.176;6.470;2023-03-01T13:21:44;5.30;;;3.42;;
10896;SDS011;5501;51.176;6.470;2023-03-01T13:32:06;7.40;;;3.90;;
10896;SDS011;5501;51.176;6.470;2023-03-01T13:37:42;5.15;;;3.25;;
10896;SDS011;5501;51.176;6.470;2023-03-01T13:42:49;6.78;;;3.50;;
10896;SDS011;5501;51.176;6.470;2023-03-01T13:48:09;6.40;;;3.40;;
10896;SDS011;5501;51.176;6.470;2023-03-01T13:53:17;4.90;;;2.95;;
10896;SDS011;5501;51.176;6.470;2023-03-01T13:58:25;4.68;;;3.20;;
10896;SDS011;5501;51.176;6.470;2023-03-01T14:03:29;7.32;;;3.33;;
10896;SDS011;5501;51.176;6.470;2023-03-01T14:08:34;5.95;;;4.03;;
10896;SDS011;5501;51.176;6.470;2023-03-01T14:19:24;5.97;;;3.35;;
10896;SDS011;5501;51.176;6.470;2023-03-01T14:24:35;8.18;;;3.17;;
10896;SDS011;5501;51.176;6.470;2023-03-01T14:29:41;5.47;;;3.28;;
10896;SDS011;5501;51.176;6.470;2023-03-01T14:34:44;5.60;;;3.55;;
10896;SDS011;5501;51.176;6.470;2023-03-01T14:39:48;7.35;;;4.32;;
10896;SDS011;5501;51.176;6.470;2023-03-01T14:44:51;7.50;;;3.80;;
10896;SDS011;5501;51.176;6.470;2023-03-01T14:49:59;8.10;;;3.47;;
10896;SDS011;5501;51.176;6.470;2023-03-01T14:55:07;5.55;;;3.30;;
10896;SDS011;5501;51.176;6.470;2023-03-01T15:05:28;4.03;;;3.35;;
10896;SDS011;5501;51.176;6.470;2023-03-01T15:10:32;8.20;;;4.07;;
10896;SDS011;5501;51.176;6.470;2023-03-01T15:15:38;5.65;;;3.55;;
10896;SDS011;5501;51.176;6.470;2023-03-01T15:20:42;7.97;;;3.85;;
10896;SDS011;5501;51.176;6.470;2023-03-01T15:25:45;5.18;;;3.67;;
10896;SDS011;5501;51.176;6.470;2023-03-01T15:30:51;5.97;;;3.72;;
10896;SDS011;5501;51.176;6.470;2023-03-01T15:41:37;7.03;;;3.78;;
10896;SDS011;5501;51.176;6.470;2023-03-01T15:46:47;7.07;;;3.92;;
10896;SDS011;5501;51.176;6.470;2023-03-01T15:51:49;5.50;;;3.55;;
10896;SDS011;5501;51.176;6.470;2023-03-01T15:56:53;7.18;;;4.13;;
10896;SDS011;5501;51.176;6.470;2023-03-01T16:01:54;6.72;;;3.70;;
10896;SDS011;5501;51.176;6.470;2023-03-01T16:06:56;9.63;;;4.03;;
10896;SDS011;5501;51.176;6.470;2023-03-01T16:11:58;7.75;;;3.85;;
10896;SDS011;5501;51.176;6.470;2023-03-01T16:16:59;7.50;;;3.78;;
10896;SDS011;5501;51.176;6.470;2023-03-01T16:22:01;6.25;;;3.20;;
10896;SDS011;5501;51.176;6.470;2023-03-01T16:27:03;8.82;;;4.05;;
10896;SDS011;5501;51.176;6.470;2023-03-01T16:32:04;6.32;;;3.33;;
10896;SDS011;5501;51.176;6.470;2023-03-01T16:37:06;13.98;;;4.32;;
10896;SDS011;5501;51.176;6.470;2023-03-01T16:42:08;6.95;;;4.00;;
10896;SDS011;5501;51.176;6.470;2023-03-01T16:47:09;6.40;;;3.25;;
10896;SDS011;5501;51.176;6.470;2023-03-01T16:52:11;7.70;;;3.70;;
10896;SDS011;5501;51.176;6.470;2023-03-01T16:57:13;6.20;;;3.47;;
10896;SDS011;5501;51.176;6.470;2023-03-01T17:02:14;4.90;;;3.38;;
10896;SDS011;5501;51.176;6.470;2023-03-01T17:07:20;6.18;;;3.78;;
10896;SDS011;5501;51.176;6.470;2023-03-01T17:12:22;7.32;;;4.13;;
10896;SDS011;5501;51.176;6.470;2023-03-01T17:17:23;7.00;;;3.75;;
10896;SDS011;5501;51.176;6.470;2023-03-01T17:22:25;6.88;;;4.18;;
10896;SDS011;5501;51.176;6.470;2023-03-01T17:27:29;7.55;;;4.35;;
10896;SDS011;5501;51.176;6.470;2023-03-01T17:32:36;8.77;;;4.10;;
10896;SDS011;5501;51.176;6.470;2023-03-01T17:37:39;6.85;;;3.50;;
10896;SDS011;5501;51.176;6.470;2023-03-01T17:42:46;6.13;;;3.97;;
10896;SDS011;5501;51.176;6.470;2023-03-01T17:47:47;4.47;;;3.08;;
10896;SDS011;5501;51.176;6.470;2023-03-01T17:52:49;10.35;;;4.03;;
10896;SDS011;5501;51.176;6.470;2023-03-01T17:57:51;6.18;;;4.60;;
10896;SDS011;5501;51.176;6.470;2023-03-01T18:02:53;8.13;;;3.38;;
10896;SDS011;5501;51.176;6.470;2023-03-01T18:07:54;6.55;;;3.60;;
10896;SDS011;5501;51.176;6.470;2023-03-01T18:12:56;5.80;;;3.90;;
10896;SDS011;5501;51.176;6.470;2023-03-01T18:17:57;6.30;;;4.00;;
10896;SDS011;5501;51.176;6.470;2023-03-01T18:22:59;8.75;;;4.13;;
10896;SDS011;5501;51.176;6.470;2023-03-01T18:28:01;7.97;;;4.93;;
10896;SDS011;5501;51.176;6.470;2023-03-01T18:33:02;9.63;;;4.07;;
10896;SDS011;5501;51.176;6.470;2023-03-01T18:38:04;7.00;;;3.53;;
10896;SDS011;5501;51.176;6.470;2023-03-01T18:43:05;5.55;;;3.83;;
10896;SDS011;5501;51.176;6.470;2023-03-01T18:48:07;8.82;;;4.10;;
10896;SDS011;5501;51.176;6.470;2023-03-01T18:53:09;8.43;;;3.72;;
10896;SDS011;5501;51.176;6.470;2023-03-01T18:58:11;6.57;;;3.47;;
10896;SDS011;5501;51.176;6.470;2023-03-01T19:03:13;5.28;;;3.33;;
10896;SDS011;5501;51.176;6.470;2023-03-01T19:08:14;5.82;;;4.00;;
10896;SDS011;5501;51.176;6.470;2023-03-01T19:13:16;9.40;;;4.40;;
10896;SDS011;5501;51.176;6.470;2023-03-01T19:18:17;8.15;;;3.45;;
10896;SDS011;5501;51.176;6.470;2023-03-01T19:23:19;8.57;;;4.95;;
10896;SDS011;5501;51.176;6.470;2023-03-01T19:28:20;8.43;;;4.22;;
10896;SDS011;5501;51.176;6.470;2023-03-01T19:33:22;6.72;;;3.95;;
10896;SDS011;5501;51.176;6.470;2023-03-01T19:38:24;6.05;;;3.35;;
10896;SDS011;5501;51.176;6.470;2023-03-01T19:43:27;8.50;;;4.20;;
10896;SDS011;5501;51.176;6.470;2023-03-01T19:48:28;5.80;;;3.65;;
10896;SDS011;5501;51.176;6.470;2023-03-01T19:53:30;6.90;;;3.97;;
10896;SDS011;5501;51.176;6.470;2023-03-01T19:58:32;5.07;;;3.30;;
10896;SDS011;5501;51.176;6.470;2023-03-01T20:03:34;7.68;;;4.57;;
10896;SDS011;5501;51.176;6.470;2023-03-01T20:08:36;6.25;;;3.53;;
10896;SDS011;5501;51.176;6.470;2023-03-01T20:13:37;5.32;;;3.92;;
10896;SDS011;5501;51.176;6.470;2023-03-01T20:18:39;5.45;;;3.65;;
10896;SDS011;5501;51.176;6.470;2023-03-01T20:23:41;6.63;;;4.15;;
10896;SDS011;5501;51.176;6.470;2023-03-01T20:28:43;8.45;;;4.38;;
10896;SDS011;5501;51.176;6.470;2023-03-01T20:33:46;8.95;;;3.97;;
10896;SDS011;5501;51.176;6.470;2023-03-01T20:38:48;8.68;;;4.78;;
10896;SDS011;5501;51.176;6.470;2023-03-01T20:43:51;11.35;;;4.75;;
10896;SDS011;5501;51.176;6.470;2023-03-01T20:48:57;5.65;;;4.45;;
10896;SDS011;5501;51.176;6.470;2023-03-01T20:53:58;9.30;;;4.53;;
10896;SDS011;5501;51.176;6.470;2023-03-01T20:59:01;8.73;;;3.75;;
10896;SDS011;5501;51.176;6.470;2023-03-01T21:04:04;6.28;;;3.97;;
10896;SDS011;5501;51.176;6.470;2023-03-01T21:09:06;7.47;;;3.67;;
10896;SDS011;5501;51.176;6.470;2023-03-01T21:14:08;7.63;;;4.35;;
10896;SDS011;5501;51.176;6.470;2023-03-01T21:19:12;6.50;;;4.47;;
10896;SDS011;5501;51.176;6.470;2023-03-01T21:24:14;9.55;;;4.55;;
10896;SDS011;5501;51.176;6.470;2023-03-01T21:29:15;5.80;;;3.83;;
10896;SDS011;5501;51.176;6.470;2023-03-01T21:34:17;6.35;;;3.95;;
10896;SDS011;5501;51.176;6.470;2023-03-01T21:39:22;8.43;;;3.92;;
10896;SDS011;5501;51.176;6.470;2023-03-01T21:44:29;6.35;;;3.50;;
10896;SDS011;5501;51.176;6.470;2023-03-01T21:49:31;6.35;;;3.10;;
10896;SDS011;5501;51.176;6.470;2023-03-01T21:54:33;8.98;;;3.85;;
10896;SDS011;5501;51.176;6.470;2023-03-01T21:59:35;17.95;;;5.82;;
10896;SDS011;5501;51.176;6.470;2023-03-01T22:04:36;17.42;;;7.20;;
10896;SDS011;5501;51.176;6.470;2023-03-01T22:09:38;13.85;;;6.43;;
10896;SDS011;5501;51.176;6.470;2023-03-01T22:14:40;7.65;;;3.88;;
10896;SDS011;5501;51.176;6.470;2023-03-01T22:19:43;7.53;;;4.05;;
10896;SDS011;5501;51.176;6.470;2023-03-01T22:24:46;7.13;;;4.05;;
10896;SDS011;5501;51.176;6.470;2023-03-01T22:29:48;6.22;;;3.63;;
10896;SDS011;5501;51.176;6.470;2023-03-01T22:34:49;7.82;;;3.70;;
10896;SDS011;5501;51.176;6.470;2023-03-01T22:39:50;6.97;;;4.72;;
10896;SDS011;5501;51.176;6.470;2023-03-01T22:44:52;7.63;;;4.07;;
10896;SDS011;5501;51.176;6.470;2023-03-01T22:49:54;7.50;;;4.30;;
10896;SDS011;5501;51.176;6.470;2023-03-01T22:54:56;4.22;;;3.00;;
10896;SDS011;5501;51.176;6.470;2023-03-01T22:59:58;5.75;;;3.28;;
10896;SDS011;5501;51.176;6.470;2023-03-01T23:04:59;6.43;;;3.65;;
10896;SDS011;5501;51.176;6.470;2023-03-01T23:10:01;7.55;;;3.38;;
10896;SDS011;5501;51.176;6.470;2023-03-01T23:15:03;6.90;;;3.80;;
10896;SDS011;5501;51.176;6.470;2023-03-01T23:20:05;4.75;;;2.78;;
10896;SDS011;5501;51.176;6.470;2023-03-01T23:25:10;5.20;;;3.45;;
10896;SDS011;5501;51.176;6.470;2023-03-01T23:30:13;7.63;;;3.22;;
10896;SDS011;5501;51.176;6.470;2023-03-01T23:35:15;5.22;;;3.25;;
10896;SDS011;5501;51.176;6.470;2023-03-01T23:40:16;6.07;;;3.20;;
10896;SDS011;5501;51.176;6.470;2023-03-01T23:45:18;6.25;;;3.58;;
10896;SDS011;5501;51.176;6.470;2023-03-01T23:50:20;9.55;;;3.10;;
10896;SDS011;5501;51.176;6.470;2023-03-01T23:55:22;6.35;;;3.08;;
